Terminal Aerodrome Forecast
Issued by NWS

Home | Current Version | Previous Version | Text Only | Print | Product List | Glossary On
Versions: 1 2 3 4 5 6 7 8 9 10 11 12 13 14 15 16 17 18 19 20 21 22 23 24 25 26 27 28 29 30 31 32 33 34 35 36
159
FTAK31 PANC 311137
TAFADQ
TAF
PADQ 311137Z 3112/0112 04018G25KT P6SM -RA SCT012 OVC022
      TEMPO 3112/3116 04015KT BKN012 OVC022
     FM311700 05024G30KT 5SM -RA BR SCT005 BKN010
     FM312000 05025G32KT 3SM -RA BR BKN005
     FM010600 05015G24KT 5SM -RA BR BKN005=

USA.gov is the U.S. government's official web portal to all federal, state and local government web resources and services.